sensor_id;sensor_type;location;lat;lon;timestamp;temperature;humidity
51815;DHT22;37874;53.158;6.766;2023-10-13T00:01:24;23.00;62.60
51815;DHT22;37874;53.158;6.766;2023-10-13T00:03:52;23.10;62.60
51815;DHT22;37874;53.158;6.766;2023-10-13T00:06:18;23.10;62.60
51815;DHT22;37874;53.158;6.766;2023-10-13T00:08:45;23.10;62.70
51815;DHT22;37874;53.158;6.766;2023-10-13T00:11:14;23.10;62.60
51815;DHT22;37874;53.158;6.766;2023-10-13T00:13:41;23.10;62.60
51815;DHT22;37874;53.158;6.766;2023-10-13T00:16:17;23.10;62.60
51815;DHT22;37874;53.158;6.766;2023-10-13T00:18:44;23.10;62.70
51815;DHT22;37874;53.158;6.766;2023-10-13T00:21:10;23.10;62.70
51815;DHT22;37874;53.158;6.766;2023-10-13T00:23:40;23.10;62.70
51815;DHT22;37874;53.158;6.766;2023-10-13T00:26:24;23.00;62.60
51815;DHT22;37874;53.158;6.766;2023-10-13T00:28:53;23.10;63.20
51815;DHT22;37874;53.158;6.766;2023-10-13T00:31:37;23.10;62.70
51815;DHT22;37874;53.158;6.766;2023-10-13T00:34:04;23.10;62.70
51815;DHT22;37874;53.158;6.766;2023-10-13T00:36:46;23.10;62.70
51815;DHT22;37874;53.158;6.766;2023-10-13T00:39:34;23.10;62.70
51815;DHT22;37874;53.158;6.766;2023-10-13T00:42:02;23.10;62.70
51815;DHT22;37874;53.158;6.766;2023-10-13T00:44:33;23.10;62.80
51815;DHT22;37874;53.158;6.766;2023-10-13T00:47:08;23.10;62.90
51815;DHT22;37874;53.158;6.766;2023-10-13T00:49:38;23.10;63.00
51815;DHT22;37874;53.158;6.766;2023-10-13T00:52:09;23.00;62.90
51815;DHT22;37874;53.158;6.766;2023-10-13T00:54:39;23.00;63.40
51815;DHT22;37874;53.158;6.766;2023-10-13T00:57:05;23.00;62.90
51815;DHT22;37874;53.158;6.766;2023-10-13T00:59:37;23.00;62.90
51815;DHT22;37874;53.158;6.766;2023-10-13T01:02:03;23.00;63.10
51815;DHT22;37874;53.158;6.766;2023-10-13T01:04:47;23.10;63.00
51815;DHT22;37874;53.158;6.766;2023-10-13T01:07:13;23.00;62.90
51815;DHT22;37874;53.158;6.766;2023-10-13T01:09:42;23.00;62.90
51815;DHT22;37874;53.158;6.766;2023-10-13T01:12:08;23.00;62.90
51815;DHT22;37874;53.158;6.766;2023-10-13T01:14:34;23.00;62.90
51815;DHT22;37874;53.158;6.766;2023-10-13T01:17:01;23.10;63.00
51815;DHT22;37874;53.158;6.766;2023-10-13T01:19:27;23.10;63.00
51815;DHT22;37874;53.158;6.766;2023-10-13T01:21:54;23.10;63.00
51815;DHT22;37874;53.158;6.766;2023-10-13T01:24:30;23.10;63.00
51815;DHT22;37874;53.158;6.766;2023-10-13T01:27:06;23.00;62.90
51815;DHT22;37874;53.158;6.766;2023-10-13T01:29:46;23.30;63.10
51815;DHT22;37874;53.158;6.766;2023-10-13T01:32:21;23.10;63.00
51815;DHT22;37874;53.158;6.766;2023-10-13T01:34:47;23.00;62.90
51815;DHT22;37874;53.158;6.766;2023-10-13T01:37:15;23.10;63.00
51815;DHT22;37874;53.158;6.766;2023-10-13T01:39:42;23.00;62.90
51815;DHT22;37874;53.158;6.766;2023-10-13T01:42:08;23.00;62.90
51815;DHT22;37874;53.158;6.766;2023-10-13T01:44:33;23.00;62.90
51815;DHT22;37874;53.158;6.766;2023-10-13T01:47:00;23.00;62.90
51815;DHT22;37874;53.158;6.766;2023-10-13T01:49:32;23.10;62.90
51815;DHT22;37874;53.158;6.766;2023-10-13T01:52:18;23.10;62.90
51815;DHT22;37874;53.158;6.766;2023-10-13T01:54:47;23.10;62.90
51815;DHT22;37874;53.158;6.766;2023-10-13T01:57:14;23.00;62.80
51815;DHT22;37874;53.158;6.766;2023-10-13T01:59:44;23.30;63.00
51815;DHT22;37874;53.158;6.766;2023-10-13T02:02:10;23.00;62.70
51815;DHT22;37874;53.158;6.766;2023-10-13T02:04:40;23.10;62.70
51815;DHT22;37874;53.158;6.766;2023-10-13T02:07:17;23.10;62.70
51815;DHT22;37874;53.158;6.766;2023-10-13T02:09:43;23.10;62.70
51815;DHT22;37874;53.158;6.766;2023-10-13T02:12:09;23.10;62.70
51815;DHT22;37874;53.158;6.766;2023-10-13T02:14:37;23.00;62.70
51815;DHT22;37874;53.158;6.766;2023-10-13T02:17:03;23.10;62.70
51815;DHT22;37874;53.158;6.766;2023-10-13T02:19:42;23.00;62.70
51815;DHT22;37874;53.158;6.766;2023-10-13T02:22:14;23.10;62.70
51815;DHT22;37874;53.158;6.766;2023-10-13T02:24:57;23.10;62.70
51815;DHT22;37874;53.158;6.766;2023-10-13T02:27:27;23.10;62.70
51815;DHT22;37874;53.158;6.766;2023-10-13T02:29:53;23.00;62.70
51815;DHT22;37874;53.158;6.766;2023-10-13T02:32:24;23.10;62.70
51815;DHT22;37874;53.158;6.766;2023-10-13T02:34:52;23.00;62.70
51815;DHT22;37874;53.158;6.766;2023-10-13T02:37:17;23.00;62.70
51815;DHT22;37874;53.158;6.766;2023-10-13T02:39:44;23.00;62.80
51815;DHT22;37874;53.158;6.766;2023-10-13T02:42:10;23.00;62.90
51815;DHT22;37874;53.158;6.766;2023-10-13T02:44:49;23.00;62.90
51815;DHT22;37874;53.158;6.766;2023-10-13T02:47:15;23.00;62.90
51815;DHT22;37874;53.158;6.766;2023-10-13T02:49:40;23.00;63.00
51815;DHT22;37874;53.158;6.766;2023-10-13T02:52:11;23.00;62.90
51815;DHT22;37874;53.158;6.766;2023-10-13T02:54:39;23.00;62.90
51815;DHT22;37874;53.158;6.766;2023-10-13T02:57:16;23.10;62.90
51815;DHT22;37874;53.158;6.766;2023-10-13T02:59:43;23.10;62.90
51815;DHT22;37874;53.158;6.766;2023-10-13T03:02:14;23.00;62.80
51815;DHT22;37874;53.158;6.766;2023-10-13T03:04:53;23.00;62.90
51815;DHT22;37874;53.158;6.766;2023-10-13T03:07:28;23.00;62.90
51815;DHT22;37874;53.158;6.766;2023-10-13T03:09:55;23.10;63.00
51815;DHT22;37874;53.158;6.766;2023-10-13T03:12:25;23.00;62.90
51815;DHT22;37874;53.158;6.766;2023-10-13T03:14:51;23.10;63.00
51815;DHT22;37874;53.158;6.766;2023-10-13T03:17:35;23.10;63.00
51815;DHT22;37874;53.158;6.766;2023-10-13T03:20:00;23.00;62.90
51815;DHT22;37874;53.158;6.766;2023-10-13T03:22:26;23.10;62.90
51815;DHT22;37874;53.158;6.766;2023-10-13T03:24:59;23.00;62.90
51815;DHT22;37874;53.158;6.766;2023-10-13T03:27:35;23.00;62.90
51815;DHT22;37874;53.158;6.766;2023-10-13T03:30:16;23.00;62.90
51815;DHT22;37874;53.158;6.766;2023-10-13T03:32:45;23.10;63.00
51815;DHT22;37874;53.158;6.766;2023-10-13T03:35:20;23.00;63.00
51815;DHT22;37874;53.158;6.766;2023-10-13T03:37:57;23.00;63.00
51815;DHT22;37874;53.158;6.766;2023-10-13T03:40:23;23.00;63.00
51815;DHT22;37874;53.158;6.766;2023-10-13T03:42:53;23.00;63.00
51815;DHT22;37874;53.158;6.766;2023-10-13T03:45:41;23.10;63.00
51815;DHT22;37874;53.158;6.766;2023-10-13T03:48:27;23.00;63.00
51815;DHT22;37874;53.158;6.766;2023-10-13T03:51:01;23.00;62.90
51815;DHT22;37874;53.158;6.766;2023-10-13T03:53:39;23.00;62.90
51815;DHT22;37874;53.158;6.766;2023-10-13T03:56:27;23.00;62.90
51815;DHT22;37874;53.158;6.766;2023-10-13T03:58:58;23.00;62.90
51815;DHT22;37874;53.158;6.766;2023-10-13T04:01:30;23.00;62.90
51815;DHT22;37874;53.158;6.766;2023-10-13T04:04:19;23.00;62.90
51815;DHT22;37874;53.158;6.766;2023-10-13T04:07:00;23.00;63.00
51815;DHT22;37874;53.158;6.766;2023-10-13T04:09:39;23.00;62.90
51815;DHT22;37874;53.158;6.766;2023-10-13T04:12:07;23.00;63.00
51815;DHT22;37874;53.158;6.766;2023-10-13T04:14:36;23.00;63.00
51815;DHT22;37874;53.158;6.766;2023-10-13T04:17:21;23.00;63.00
51815;DHT22;37874;53.158;6.766;2023-10-13T04:19:55;23.00;63.00
51815;DHT22;37874;53.158;6.766;2023-10-13T04:22:38;23.00;63.00
51815;DHT22;37874;53.158;6.766;2023-10-13T04:27:58;23.00;63.00
51815;DHT22;37874;53.158;6.766;2023-10-13T04:30:46;23.00;63.00
51815;DHT22;37874;53.158;6.766;2023-10-13T04:33:33;23.00;63.00
51815;DHT22;37874;53.158;6.766;2023-10-13T04:36:11;23.00;63.00
51815;DHT22;37874;53.158;6.766;2023-10-13T04:38:40;23.00;63.00
51815;DHT22;37874;53.158;6.766;2023-10-13T04:41:37;23.00;63.00
51815;DHT22;37874;53.158;6.766;2023-10-13T04:44:04;23.00;63.00
51815;DHT22;37874;53.158;6.766;2023-10-13T04:46:31;23.00;63.00
51815;DHT22;37874;53.158;6.766;2023-10-13T04:49:31;23.00;63.00
51815;DHT22;37874;53.158;6.766;2023-10-13T04:52:06;23.00;63.00
51815;DHT22;37874;53.158;6.766;2023-10-13T04:54:38;23.00;63.00
51815;DHT22;37874;53.158;6.766;2023-10-13T04:57:14;23.00;63.00
51815;DHT22;37874;53.158;6.766;2023-10-13T05:00:04;23.00;63.00
51815;DHT22;37874;53.158;6.766;2023-10-13T05:02:41;23.00;63.00
51815;DHT22;37874;53.158;6.766;2023-10-13T05:05:20;23.00;63.00
51815;DHT22;37874;53.158;6.766;2023-10-13T05:08:05;23.00;63.00
51815;DHT22;37874;53.158;6.766;2023-10-13T05:10:50;23.00;63.00
51815;DHT22;37874;53.158;6.766;2023-10-13T05:13:34;23.00;63.00
51815;DHT22;37874;53.158;6.766;2023-10-13T05:16:18;23.00;63.00
51815;DHT22;37874;53.158;6.766;2023-10-13T05:19:13;23.00;63.00
51815;DHT22;37874;53.158;6.766;2023-10-13T05:21:57;23.00;63.00
51815;DHT22;37874;53.158;6.766;2023-10-13T05:24:42;23.00;63.00
51815;DHT22;37874;53.158;6.766;2023-10-13T05:27:26;23.00;63.00
51815;DHT22;37874;53.158;6.766;2023-10-13T05:30:10;23.00;63.00
51815;DHT22;37874;53.158;6.766;2023-10-13T05:32:55;23.00;63.00
51815;DHT22;37874;53.158;6.766;2023-10-13T05:35:39;23.00;63.00
51815;DHT22;37874;53.158;6.766;2023-10-13T05:38:23;23.00;63.00
51815;DHT22;37874;53.158;6.766;2023-10-13T05:41:08;23.00;63.00
51815;DHT22;37874;53.158;6.766;2023-10-13T05:43:52;23.00;63.10
51815;DHT22;37874;53.158;6.766;2023-10-13T05:46:37;23.00;63.20
51815;DHT22;37874;53.158;6.766;2023-10-13T05:49:04;23.00;63.20
51815;DHT22;37874;53.158;6.766;2023-10-13T05:51:42;23.00;63.30
51815;DHT22;37874;53.158;6.766;2023-10-13T05:54:32;23.00;63.30
51815;DHT22;37874;53.158;6.766;2023-10-13T05:57:16;23.00;63.20
51815;DHT22;37874;53.158;6.766;2023-10-13T06:00:01;23.00;63.20
51815;DHT22;37874;53.158;6.766;2023-10-13T06:02:45;23.00;63.20
51815;DHT22;37874;53.158;6.766;2023-10-13T06:05:29;23.00;63.20
51815;DHT22;37874;53.158;6.766;2023-10-13T06:08:14;23.00;63.20
51815;DHT22;37874;53.158;6.766;2023-10-13T06:11:02;23.00;63.30
51815;DHT22;37874;53.158;6.766;2023-10-13T06:13:48;23.00;63.30
51815;DHT22;37874;53.158;6.766;2023-10-13T06:16:32;23.00;63.30
51815;DHT22;37874;53.158;6.766;2023-10-13T06:19:16;23.00;63.30
51815;DHT22;37874;53.158;6.766;2023-10-13T06:22:01;23.00;63.40
51815;DHT22;37874;53.158;6.766;2023-10-13T06:24:45;23.00;63.40
51815;DHT22;37874;53.158;6.766;2023-10-13T06:27:29;23.00;63.50
51815;DHT22;37874;53.158;6.766;2023-10-13T06:30:13;23.00;63.60
51815;DHT22;37874;53.158;6.766;2023-10-13T06:32:39;23.00;63.60
51815;DHT22;37874;53.158;6.766;2023-10-13T06:35:06;22.50;63.40
51815;DHT22;37874;53.158;6.766;2023-10-13T06:37:45;23.00;63.70
51815;DHT22;37874;53.158;6.766;2023-10-13T06:40:12;23.00;63.80
51815;DHT22;37874;53.158;6.766;2023-10-13T06:42:50;23.00;63.80
51815;DHT22;37874;53.158;6.766;2023-10-13T06:45:16;23.00;63.80
51815;DHT22;37874;53.158;6.766;2023-10-13T06:47:43;23.00;63.80
51815;DHT22;37874;53.158;6.766;2023-10-13T06:50:10;23.00;63.80
51815;DHT22;37874;53.158;6.766;2023-10-13T06:52:45;23.00;63.80
51815;DHT22;37874;53.158;6.766;2023-10-13T06:55:15;23.00;63.80
51815;DHT22;37874;53.158;6.766;2023-10-13T06:57:54;23.00;63.80
51815;DHT22;37874;53.158;6.766;2023-10-13T07:00:26;23.00;63.80
51815;DHT22;37874;53.158;6.766;2023-10-13T07:03:01;23.00;63.80
51815;DHT22;37874;53.158;6.766;2023-10-13T07:05:43;23.00;63.80
51815;DHT22;37874;53.158;6.766;2023-10-13T07:08:10;23.10;63.90
51815;DHT22;37874;53.158;6.766;2023-10-13T07:10:53;23.00;63.80
51815;DHT22;37874;53.158;6.766;2023-10-13T07:13:34;23.00;63.80
51815;DHT22;37874;53.158;6.766;2023-10-13T07:16:05;23.00;63.70
51815;DHT22;37874;53.158;6.766;2023-10-13T07:18:38;23.00;63.80
51815;DHT22;37874;53.158;6.766;2023-10-13T07:21:16;23.00;63.80
51815;DHT22;37874;53.158;6.766;2023-10-13T07:23:42;23.00;63.80
51815;DHT22;37874;53.158;6.766;2023-10-13T07:26:26;23.00;63.70
51815;DHT22;37874;53.158;6.766;2023-10-13T07:28:52;23.00;63.70
51815;DHT22;37874;53.158;6.766;2023-10-13T07:31:19;23.10;63.60
51815;DHT22;37874;53.158;6.766;2023-10-13T07:33:47;23.10;63.60
51815;DHT22;37874;53.158;6.766;2023-10-13T07:36:13;23.10;64.10
51815;DHT22;37874;53.158;6.766;2023-10-13T07:38:44;23.00;63.50
51815;DHT22;37874;53.158;6.766;2023-10-13T07:41:15;23.10;63.50
51815;DHT22;37874;53.158;6.766;2023-10-13T07:43:47;23.00;63.50
51815;DHT22;37874;53.158;6.766;2023-10-13T07:46:13;23.10;63.50
51815;DHT22;37874;53.158;6.766;2023-10-13T07:48:40;23.10;63.50
51815;DHT22;37874;53.158;6.766;2023-10-13T07:51:09;23.10;63.40
51815;DHT22;37874;53.158;6.766;2023-10-13T07:53:42;23.10;63.40
51815;DHT22;37874;53.158;6.766;2023-10-13T07:56:12;23.10;63.40
51815;DHT22;37874;53.158;6.766;2023-10-13T07:58:38;23.10;63.40
51815;DHT22;37874;53.158;6.766;2023-10-13T08:01:13;23.10;63.40
51815;DHT22;37874;53.158;6.766;2023-10-13T08:03:46;23.10;63.90
51815;DHT22;37874;53.158;6.766;2023-10-13T08:06:13;23.10;63.40
51815;DHT22;37874;53.158;6.766;2023-10-13T08:08:39;23.10;63.30
51815;DHT22;37874;53.158;6.766;2023-10-13T08:11:16;23.10;63.30
51815;DHT22;37874;53.158;6.766;2023-10-13T08:14:00;23.10;63.20
51815;DHT22;37874;53.158;6.766;2023-10-13T08:16:41;23.10;63.20
51815;DHT22;37874;53.158;6.766;2023-10-13T08:19:28;23.10;63.10
51815;DHT22;37874;53.158;6.766;2023-10-13T08:22:02;23.10;63.10
51815;DHT22;37874;53.158;6.766;2023-10-13T08:24:52;23.10;63.10
51815;DHT22;37874;53.158;6.766;2023-10-13T08:27:21;23.10;63.00
51815;DHT22;37874;53.158;6.766;2023-10-13T08:30:00;23.10;63.10
51815;DHT22;37874;53.158;6.766;2023-10-13T08:32:28;23.10;63.10
51815;DHT22;37874;53.158;6.766;2023-10-13T08:35:01;23.20;63.10
51815;DHT22;37874;53.158;6.766;2023-10-13T08:37:31;23.20;63.10
51815;DHT22;37874;53.158;6.766;2023-10-13T08:40:23;23.20;63.10
51815;DHT22;37874;53.158;6.766;2023-10-13T08:43:10;23.20;63.00
51815;DHT22;37874;53.158;6.766;2023-10-13T08:45:39;23.20;63.00
51815;DHT22;37874;53.158;6.766;2023-10-13T08:48:06;23.20;63.00
51815;DHT22;37874;53.158;6.766;2023-10-13T08:50:50;23.20;63.00
51815;DHT22;37874;53.158;6.766;2023-10-13T08:56:06;23.20;62.80
51815;DHT22;37874;53.158;6.766;2023-10-13T08:58:37;23.20;63.30
51815;DHT22;37874;53.158;6.766;2023-10-13T09:01:19;23.20;62.70
51815;DHT22;37874;53.158;6.766;2023-10-13T09:04:08;23.20;62.70
51815;DHT22;37874;53.158;6.766;2023-10-13T09:06:47;23.20;62.70
51815;DHT22;37874;53.158;6.766;2023-10-13T09:09:24;23.30;62.70
51815;DHT22;37874;53.158;6.766;2023-10-13T09:11:56;23.30;62.60
51815;DHT22;37874;53.158;6.766;2023-10-13T09:14:39;23.30;62.60
51815;DHT22;37874;53.158;6.766;2023-10-13T09:17:09;23.30;62.50
51815;DHT22;37874;53.158;6.766;2023-10-13T09:19:55;23.40;62.50
51815;DHT22;37874;53.158;6.766;2023-10-13T09:24:59;23.40;62.20
51815;DHT22;37874;53.158;6.766;2023-10-13T09:27:27;23.50;62.20
51815;DHT22;37874;53.158;6.766;2023-10-13T09:30:01;23.50;62.10
51815;DHT22;37874;53.158;6.766;2023-10-13T09:32:47;23.50;62.10
51815;DHT22;37874;53.158;6.766;2023-10-13T09:35:21;23.50;62.00
51815;DHT22;37874;53.158;6.766;2023-10-13T09:37:53;23.50;62.00
51815;DHT22;37874;53.158;6.766;2023-10-13T09:40:22;23.50;61.90
51815;DHT22;37874;53.158;6.766;2023-10-13T09:43:11;23.50;61.90
51815;DHT22;37874;53.158;6.766;2023-10-13T09:45:41;23.50;61.80
51815;DHT22;37874;53.158;6.766;2023-10-13T09:48:39;23.60;61.90
51815;DHT22;37874;53.158;6.766;2023-10-13T09:51:13;23.60;61.80
51815;DHT22;37874;53.158;6.766;2023-10-13T09:53:42;23.60;61.70
51815;DHT22;37874;53.158;6.766;2023-10-13T09:58:52;23.70;61.60
51815;DHT22;37874;53.158;6.766;2023-10-13T10:01:28;23.70;61.50
51815;DHT22;37874;53.158;6.766;2023-10-13T10:04:08;23.70;61.50
51815;DHT22;37874;53.158;6.766;2023-10-13T10:06:58;23.70;61.40
51815;DHT22;37874;53.158;6.766;2023-10-13T10:09:29;23.70;61.30
51815;DHT22;37874;53.158;6.766;2023-10-13T10:17:09;23.80;61.20
51815;DHT22;37874;53.158;6.766;2023-10-13T10:19:48;23.90;61.20
51815;DHT22;37874;53.158;6.766;2023-10-13T10:22:31;23.90;61.10
51815;DHT22;37874;53.158;6.766;2023-10-13T10:25:05;23.90;61.00
51815;DHT22;37874;53.158;6.766;2023-10-13T10:28:02;23.90;61.00
51815;DHT22;37874;53.158;6.766;2023-10-13T10:30:32;23.90;60.90
51815;DHT22;37874;53.158;6.766;2023-10-13T10:33:05;23.90;60.90
51815;DHT22;37874;53.158;6.766;2023-10-13T10:35:40;23.90;60.90
51815;DHT22;37874;53.158;6.766;2023-10-13T10:38:18;24.00;60.90
51815;DHT22;37874;53.158;6.766;2023-10-13T10:41:03;24.00;60.90
51815;DHT22;37874;53.158;6.766;2023-10-13T10:46:17;24.00;60.80
51815;DHT22;37874;53.158;6.766;2023-10-13T10:48:43;24.00;60.70
51815;DHT22;37874;53.158;6.766;2023-10-13T10:51:13;24.00;60.60
51815;DHT22;37874;53.158;6.766;2023-10-13T10:53:40;24.10;60.60
51815;DHT22;37874;53.158;6.766;2023-10-13T10:56:13;24.00;60.50
51815;DHT22;37874;53.158;6.766;2023-10-13T10:58:52;24.10;60.60
51815;DHT22;37874;53.158;6.766;2023-10-13T11:01:32;24.30;60.60
51815;DHT22;37874;53.158;6.766;2023-10-13T11:04:06;24.20;60.60
51815;DHT22;37874;53.158;6.766;2023-10-13T11:06:57;24.10;60.50
51815;DHT22;37874;53.158;6.766;2023-10-13T11:09:31;24.10;60.40
51815;DHT22;37874;53.158;6.766;2023-10-13T11:12:12;24.20;61.00
51815;DHT22;37874;53.158;6.766;2023-10-13T11:14:43;24.20;60.30
51815;DHT22;37874;53.158;6.766;2023-10-13T11:17:21;24.20;60.10
51815;DHT22;37874;53.158;6.766;2023-10-13T11:19:52;24.30;60.10
51815;DHT22;37874;53.158;6.766;2023-10-13T11:22:22;24.30;59.90
51815;DHT22;37874;53.158;6.766;2023-10-13T11:25:06;24.30;60.00
51815;DHT22;37874;53.158;6.766;2023-10-13T11:27:39;24.30;59.90
51815;DHT22;37874;53.158;6.766;2023-10-13T11:30:15;24.30;60.50
51815;DHT22;37874;53.158;6.766;2023-10-13T11:33:02;24.30;59.90
51815;DHT22;37874;53.158;6.766;2023-10-13T11:35:39;24.30;60.00
51815;DHT22;37874;53.158;6.766;2023-10-13T11:38:28;24.30;60.00
51815;DHT22;37874;53.158;6.766;2023-10-13T11:43:50;24.30;59.80
51815;DHT22;37874;53.158;6.766;2023-10-13T11:46:18;24.30;60.00
51815;DHT22;37874;53.158;6.766;2023-10-13T11:49:04;24.30;60.00
51815;DHT22;37874;53.158;6.766;2023-10-13T11:51:40;24.30;60.00
51815;DHT22;37874;53.158;6.766;2023-10-13T11:56:48;24.30;60.10
51815;DHT22;37874;53.158;6.766;2023-10-13T11:59:15;24.30;60.00
51815;DHT22;37874;53.158;6.766;2023-10-13T12:01:48;24.30;60.00
51815;DHT22;37874;53.158;6.766;2023-10-13T12:04:34;24.40;60.00
51815;DHT22;37874;53.158;6.766;2023-10-13T12:07:21;24.40;59.90
51815;DHT22;37874;53.158;6.766;2023-10-13T12:10:06;24.30;59.90
51815;DHT22;37874;53.158;6.766;2023-10-13T12:12:41;24.40;60.00
51815;DHT22;37874;53.158;6.766;2023-10-13T12:15:09;24.30;59.80
51815;DHT22;37874;53.158;6.766;2023-10-13T12:17:38;24.40;59.90
51815;DHT22;37874;53.158;6.766;2023-10-13T12:20:10;24.30;59.80
51815;DHT22;37874;53.158;6.766;2023-10-13T12:22:43;24.30;60.00
51815;DHT22;37874;53.158;6.766;2023-10-13T12:25:17;24.40;60.10
51815;DHT22;37874;53.158;6.766;2023-10-13T12:27:58;24.30;60.00
51815;DHT22;37874;53.158;6.766;2023-10-13T12:30:31;24.40;60.10
51815;DHT22;37874;53.158;6.766;2023-10-13T12:33:21;24.30;60.10
51815;DHT22;37874;53.158;6.766;2023-10-13T12:36:00;24.30;60.10
51815;DHT22;37874;53.158;6.766;2023-10-13T12:38:36;24.30;60.20
51815;DHT22;37874;53.158;6.766;2023-10-13T12:41:14;24.30;60.30
51815;DHT22;37874;53.158;6.766;2023-10-13T12:43:58;24.30;60.30
51815;DHT22;37874;53.158;6.766;2023-10-13T12:46:43;24.30;60.30
51815;DHT22;37874;53.158;6.766;2023-10-13T12:49:27;24.30;60.30
51815;DHT22;37874;53.158;6.766;2023-10-13T12:52:11;24.30;60.40
51815;DHT22;37874;53.158;6.766;2023-10-13T12:54:52;24.30;60.40
51815;DHT22;37874;53.158;6.766;2023-10-13T12:59:50;24.30;60.50
51815;DHT22;37874;53.158;6.766;2023-10-13T13:02:26;24.30;60.50
51815;DHT22;37874;53.158;6.766;2023-10-13T13:04:56;24.20;60.50
51815;DHT22;37874;53.158;6.766;2023-10-13T13:07:37;24.30;60.50
51815;DHT22;37874;53.158;6.766;2023-10-13T13:10:16;24.20;60.50
51815;DHT22;37874;53.158;6.766;2023-10-13T13:12:42;24.20;60.70
51815;DHT22;37874;53.158;6.766;2023-10-13T13:15:08;24.20;60.70
51815;DHT22;37874;53.158;6.766;2023-10-13T13:17:38;24.20;60.70
51815;DHT22;37874;53.158;6.766;2023-10-13T13:20:06;24.20;60.70
51815;DHT22;37874;53.158;6.766;2023-10-13T13:22:38;24.20;60.70
51815;DHT22;37874;53.158;6.766;2023-10-13T13:25:04;24.20;60.70
51815;DHT22;37874;53.158;6.766;2023-10-13T13:27:35;24.20;60.70
51815;DHT22;37874;53.158;6.766;2023-10-13T13:30:05;24.20;60.90
51815;DHT22;37874;53.158;6.766;2023-10-13T13:32:39;24.20;60.90
51815;DHT22;37874;53.158;6.766;2023-10-13T13:35:07;24.20;60.90
51815;DHT22;37874;53.158;6.766;2023-10-13T13:37:34;24.20;61.00
51815;DHT22;37874;53.158;6.766;2023-10-13T13:40:03;24.20;61.00
51815;DHT22;37874;53.158;6.766;2023-10-13T13:42:47;24.20;61.10
51815;DHT22;37874;53.158;6.766;2023-10-13T13:45:17;24.10;61.00
51815;DHT22;37874;53.158;6.766;2023-10-13T13:47:55;24.10;61.60
51815;DHT22;37874;53.158;6.766;2023-10-13T13:50:22;24.10;61.20
51815;DHT22;37874;53.158;6.766;2023-10-13T13:52:56;24.10;61.20
51815;DHT22;37874;53.158;6.766;2023-10-13T13:55:25;24.20;61.30
51815;DHT22;37874;53.158;6.766;2023-10-13T13:57:58;24.10;61.30
51815;DHT22;37874;53.158;6.766;2023-10-13T14:00:23;24.10;61.20
51815;DHT22;37874;53.158;6.766;2023-10-13T14:03:06;24.10;61.20
51815;DHT22;37874;53.158;6.766;2023-10-13T14:05:44;24.10;61.40
51815;DHT22;37874;53.158;6.766;2023-10-13T14:08:10;24.10;61.30
51815;DHT22;37874;53.158;6.766;2023-10-13T14:10:41;24.20;61.30
51815;DHT22;37874;53.158;6.766;2023-10-13T14:13:25;24.10;61.40
51815;DHT22;37874;53.158;6.766;2023-10-13T14:16:10;24.10;61.50
51815;DHT22;37874;53.158;6.766;2023-10-13T14:18:46;24.10;61.40
51815;DHT22;37874;53.158;6.766;2023-10-13T14:21:12;24.10;61.40
51815;DHT22;37874;53.158;6.766;2023-10-13T14:23:51;24.20;61.50
51815;DHT22;37874;53.158;6.766;2023-10-13T14:26:20;24.20;61.50
51815;DHT22;37874;53.158;6.766;2023-10-13T14:28:47;24.20;61.40
51815;DHT22;37874;53.158;6.766;2023-10-13T14:31:32;24.10;61.40
51815;DHT22;37874;53.158;6.766;2023-10-13T14:33:59;24.20;61.40
51815;DHT22;37874;53.158;6.766;2023-10-13T14:36:25;24.10;61.40
51815;DHT22;37874;53.158;6.766;2023-10-13T14:38:55;24.20;61.50
51815;DHT22;37874;53.158;6.766;2023-10-13T14:41:21;24.20;61.50
51815;DHT22;37874;53.158;6.766;2023-10-13T14:43:47;24.20;61.50
51815;DHT22;37874;53.158;6.766;2023-10-13T14:46:20;24.20;61.50
51815;DHT22;37874;53.158;6.766;2023-10-13T14:48:52;24.20;61.60
51815;DHT22;37874;53.158;6.766;2023-10-13T14:51:18;24.20;61.50
51815;DHT22;37874;53.158;6.766;2023-10-13T14:53:46;24.20;61.50
51815;DHT22;37874;53.158;6.766;2023-10-13T14:56:16;24.20;61.70
51815;DHT22;37874;53.158;6.766;2023-10-13T14:58:43;24.20;61.70
51815;DHT22;37874;53.158;6.766;2023-10-13T15:01:17;24.20;61.70
51815;DHT22;37874;53.158;6.766;2023-10-13T15:03:51;24.20;61.70
51815;DHT22;37874;53.158;6.766;2023-10-13T15:06:27;24.10;61.70
51815;DHT22;37874;53.158;6.766;2023-10-13T15:08:57;24.10;61.80
51815;DHT22;37874;53.158;6.766;2023-10-13T15:11:24;24.10;61.90
51815;DHT22;37874;53.158;6.766;2023-10-13T15:14:02;24.10;62.00
51815;DHT22;37874;53.158;6.766;2023-10-13T15:16:29;24.10;62.00
51815;DHT22;37874;53.158;6.766;2023-10-13T15:18:55;24.10;62.00
51815;DHT22;37874;53.158;6.766;2023-10-13T15:21:29;24.10;62.10
51815;DHT22;37874;53.158;6.766;2023-10-13T15:24:03;24.10;62.20
51815;DHT22;37874;53.158;6.766;2023-10-13T15:26:33;24.10;62.20
51815;DHT22;37874;53.158;6.766;2023-10-13T15:29:04;24.00;62.20
51815;DHT22;37874;53.158;6.766;2023-10-13T15:31:40;24.00;62.40
51815;DHT22;37874;53.158;6.766;2023-10-13T15:34:13;24.00;62.50
51815;DHT22;37874;53.158;6.766;2023-10-13T15:36:40;23.90;62.50
51815;DHT22;37874;53.158;6.766;2023-10-13T15:39:10;24.00;62.70
51815;DHT22;37874;53.158;6.766;2023-10-13T15:41:37;23.90;62.80
51815;DHT22;37874;53.158;6.766;2023-10-13T15:44:13;23.90;62.90
51815;DHT22;37874;53.158;6.766;2023-10-13T15:46:39;23.90;63.00
51815;DHT22;37874;53.158;6.766;2023-10-13T15:49:05;23.90;63.10
51815;DHT22;37874;53.158;6.766;2023-10-13T15:51:32;23.80;63.10
51815;DHT22;37874;53.158;6.766;2023-10-13T15:54:03;23.80;63.80
51815;DHT22;37874;53.158;6.766;2023-10-13T15:56:30;23.80;63.30
51815;DHT22;37874;53.158;6.766;2023-10-13T15:59:01;23.80;63.50
51815;DHT22;37874;53.158;6.766;2023-10-13T16:01:28;23.80;63.50
51815;DHT22;37874;53.158;6.766;2023-10-13T16:03:54;23.70;63.40
51815;DHT22;37874;53.158;6.766;2023-10-13T16:06:20;23.80;63.50
51815;DHT22;37874;53.158;6.766;2023-10-13T16:08:52;23.70;63.50
51815;DHT22;37874;53.158;6.766;2023-10-13T16:11:18;23.70;63.50
51815;DHT22;37874;53.158;6.766;2023-10-13T16:13:45;23.70;63.50
51815;DHT22;37874;53.158;6.766;2023-10-13T16:16:19;23.80;63.60
51815;DHT22;37874;53.158;6.766;2023-10-13T16:18:48;23.80;63.70
51815;DHT22;37874;53.158;6.766;2023-10-13T16:21:15;23.70;63.70
51815;DHT22;37874;53.158;6.766;2023-10-13T16:23:42;23.80;63.80
51815;DHT22;37874;53.158;6.766;2023-10-13T16:26:11;23.70;63.70
51815;DHT22;37874;53.158;6.766;2023-10-13T16:28:37;23.70;63.60
51815;DHT22;37874;53.158;6.766;2023-10-13T16:31:05;23.70;63.50
51815;DHT22;37874;53.158;6.766;2023-10-13T16:33:34;23.80;63.60
51815;DHT22;37874;53.158;6.766;2023-10-13T16:36:06;23.80;63.50
51815;DHT22;37874;53.158;6.766;2023-10-13T16:38:35;23.80;63.60
51815;DHT22;37874;53.158;6.766;2023-10-13T16:41:02;23.80;63.50